Rosa, Louisiana
Current Conditions -  °F | °C
As of 8:35 AM on Tuesday 21 Oct 2014 (Local Time) from KOPL Reporting Station
Clear Clear  
Wind Chill: 61°   Ceiling: Unl
Heat Index: 61°   Visibility: 10mi
Dew Point: 54°   Wind: 6mph
Humidity: 79%   Direction: 50°NE
Pressure: 30.08"   Gusts: NA
Location:  30.7315°N, 91.9765°W
Report Text: KOPL 211335Z AUTO 05005KT 10SM CLR 16/12 A3008 RMK AO2 T01590123
Loading
Personal Weather Stations






























Interactive Weather Map
Tropical Storm Tracking
New forecast layout! Learn more

10-Day Weather Forecast

Advertisements
Track Severe Weather on mobile